Sponsor Message:
Travel Polls & Prefs Forum
My Starred Topics | Profile | New Topic | Forum Index | Help | Search 
Temperature At Your Home Airport Now?  
User currently offlineF.pier From Italy, joined Aug 2000, 1523 posts, RR: 9
Posted (8 years 1 week 4 days 16 hours ago) and read 3957 times:

LIPO 220950Z 25003KT CAVOK 32/14 Q1015

32�

26 replies: All unread, showing first 25:
 
User currently offlineAeroWesty From United States of America, joined Oct 2004, 20394 posts, RR: 62
Reply 1, posted (8 years 1 week 4 days 16 hours ago) and read 3952 times:

PDX at 3:53AM, 79F/26C with 64% humidity. It's absolutely ghastly.


International Homo of Mystery
User currently offlineRobertNL070 From Netherlands, joined Sep 2003, 4532 posts, RR: 10
Reply 2, posted (8 years 1 week 4 days 16 hours ago) and read 3946 times:

RTM: 7/8 thin cloud cover; 28.5C/83.3F; 55% humidity; very light west wind; 1016 hPa steady.

 bouncy 



Youth is a gift of nature. Age is a work of art.
User currently offlineHAWK21M From India, joined Jan 2001, 31667 posts, RR: 56
Reply 3, posted (8 years 1 week 4 days 16 hours ago) and read 3943 times:

30degC. 1630IST
regds
MEL



Think of the brighter side!
User currently offlineTripleDelta From Croatia, joined Jul 2004, 1120 posts, RR: 7
Reply 4, posted (8 years 1 week 4 days 16 hours ago) and read 3938 times:
AIRLINERS.NET CREW
PHOTO SCREENER

LDZA 221100Z VRB07KT CAVOK 33/18 Q1017 NOSIG

33 C, urgh...



No plane, no gain.
User currently offlineDerico From Argentina, joined Dec 1999, 4302 posts, RR: 12
Reply 5, posted (8 years 1 week 4 days 13 hours ago) and read 3919 times:

MDZ -2C, 30F 1145GMT


My internet was not shut down, the internet has shut me down
User currently offlineSantosdumont From Brazil, joined Dec 2003, 1201 posts, RR: 4
Reply 6, posted (8 years 1 week 4 days 13 hours ago) and read 3913 times:

Very dry in Sao Paulo:

SBGR 221300Z 06004KT CAVOK 20/11 Q1022



"Pursuit Of Truth No Matter Where It Lies" -- Metallica
User currently offlineLorenz From Norway, joined Aug 2000, 134 posts, RR: 0
Reply 7, posted (8 years 1 week 4 days 13 hours ago) and read 3908 times:

>>> ENGM (OSLO/GARDERMOEN) <<<

METAR 221420Z VRB02KT 9999 FEW047CB SCT100 BKN150 29/15 Q1014 NOSIG


User currently offlineBradWray From United Kingdom, joined Jun 2005, 650 posts, RR: 1
Reply 8, posted (8 years 1 week 4 days 13 hours ago) and read 3900 times:

Its 15:40 at MAN/EGCC and the tempriture is 24C

High cloud cover and preticted thunder storms later on today.

The next 4 days:
-Sunday 24C
-Monday 26C
-Tuesday 29C
-Wednesday 28C

Bradley! Big grin



Hamilton: English for 'Alonso's bitch' :D
User currently offlineSaxdiva From United States of America, joined Jun 2004, 2382 posts, RR: 42
Reply 9, posted (8 years 1 week 4 days 12 hours ago) and read 3891 times:

7:59am at KBUR:

Wind Calm
Visibility 10 mile(s)
Sky conditions clear
Temperature 78.1 F (25.6 C)
Dew Point 63.0 F (17.2 C)
Relative Humidity 59%
Pressure (altimeter) 29.82 in. Hg (1009 hPa)
ob KBUR 221353Z 00000KT 10SM CLR 26/17 A2982 RMK AO2 SLP082

Oh, and we're expecting 103 degreesF (about 39C) within the next six hours. Can't wait.  irked 


User currently offlineStormbringer From Canada, joined Apr 2005, 145 posts, RR: 0
Reply 10, posted (8 years 1 week 4 days 5 hours ago) and read 3873 times:

YYJ is currently 32c WSW 11 km/h 62% RH


It's not road rage. It's COURTESY ENFORCEMENT.
User currently offlineSkyTaxi From United States of America, joined Jun 2006, 141 posts, RR: 0
Reply 11, posted (8 years 1 week 4 days 4 hours ago) and read 3864 times:

SEA

(Current conditions as of 3:53 pm PDT) 7/22/06

Fair
Tempature: 91°
Barometer: 29.94 in and falling
Humidity: 33%
Visibility: 10 mi
Dewpoint: 58°
Wind: NW 7 mph


User currently offlineSkookum From Canada, joined Jul 2006, 115 posts, RR: 0
Reply 12, posted (8 years 1 week 4 days 3 hours ago) and read 3855 times:

Visiting family in California, so:

KPAO 222347Z 32010KT 30SM FEW080 37/18 A2976=

Quite warm, here.

Cheers
Skookum



Good flying
User currently offlinePlanemanofnz From New Zealand, joined Sep 2005, 1675 posts, RR: 0
Reply 13, posted (8 years 1 week 3 days 18 hours ago) and read 3846 times:
Support Airliners.net - become a First Class Member!

Auckland is currently 10° celcsius at 9:05pm.

User currently offlineScoliodon From India, joined Oct 2005, 217 posts, RR: 0
Reply 14, posted (8 years 1 week 3 days 12 hours ago) and read 3839 times:

MAA 33 degrees celsius 2110 IST


JFK-LGA-EWR-DTW-IND-PHX-CLE-SFO-LAS-SEA-ORD-MCO-MIA-DFW-ATL-CDG-FRA-BOM-MAA-DEL-TRZ-DXB-CLT-CVG-DEN-MSP
User currently offlineWrighbrothers From United Kingdom, joined Jul 2005, 1875 posts, RR: 9
Reply 15, posted (8 years 1 week 3 days 10 hours ago) and read 3828 times:

Down here at LHR:
today 26C
tomorow 29°C
Tuesday 33°C
Wednesday 33°C
Thursday 29°C

Wrighbrothers



Always stand up for what is right, even if it means standing alone..
User currently offlineEdelag From Mexico, joined Dec 2005, 331 posts, RR: 0
Reply 16, posted (8 years 1 week 3 days 10 hours ago) and read 3825 times:

Here in MTY, the weather is 36°C. Current time in northern Mexico is 12:38 central time.


It's not just the destination, it's the journey.
User currently offlineBill1036 From United Kingdom, joined Jul 2006, 70 posts, RR: 0
Reply 17, posted (8 years 1 week 2 days 5 hours ago) and read 3797 times:

GLA at 23.25

Wind 6mph Southerly
CAVOK
16 celcius,Q1022,dew point 12 celcius,relative humidity 55%
At last,a good night's sleep!



it would be rude not to!
User currently offline777fan From United States of America, joined Jan 2006, 2492 posts, RR: 2
Reply 18, posted (8 years 1 week 2 days 4 hours ago) and read 3791 times:

Aloha:

2006/07/24 21:53 PHNL 242153Z 05012KT 10SM FEW044 31/18 A3006

Current temperature: 87F/31C


777fan



DC-8 61/63/71 DC-9-30/50 MD-80/82/83 DC-10-10/30 MD-11 717 721/2 732/3/4/5/G/8/9 741/2/4 752 762/3 777 A306/319/20/33 AT
User currently offlineYULYMX From Canada, joined May 2006, 977 posts, RR: 1
Reply 19, posted (8 years 1 week 2 days 4 hours ago) and read 3789 times:

25°C
Nuageux




VENTS 17 km/h SO
RAFALES
HUMIDITÉ RELATIVE 47%
POINT DE ROSÉE 13°C
PRESSION 101.28 kPa
VISIBILITÉ 48 km
PLAFOND 13000 pi.


YUL 25C and cloudy

Émis le : Lundi 24 juillet 2006, 18:00 HAE - Aéroport P.-E.-Trudeau


User currently offlineAlexPorter From , joined Dec 1969, posts, RR:
Reply 20, posted (8 years 6 days 6 hours ago) and read 3757 times:

MSP: 91F/33C Wind Chill:89F Wind:NW8 Humidity:30% Alt:29.81
PHX: 94F/34C Heat Index:99F Wind:WNW5 Humidity:43% Alt:29.85

Surprisingly, PHX is only 3 degrees warmer and has higher humidity than MSP. That doesn't happen very often at all.


User currently offlineCOEXpilot From , joined Dec 1969, posts, RR:
Reply 21, posted (8 years 1 day 8 hours ago) and read 3732 times:

PHX is probably 150,000 degrees. I'm at IAH right now. We've had record breakers in Phoenix the past week.

User currently offline777fan From United States of America, joined Jan 2006, 2492 posts, RR: 2
Reply 22, posted (8 years 1 day 8 hours ago) and read 3728 times:

Aloha from a dark and damp Honolulu:

2006/08/01 18:53
PHNL 011853Z 15008KT 10SM FEW017TCU SCT029 BKN050 27/22 A2997 RMK AO2 SLP147 TCU NE MOV N T02670217

Today's forecast calls for scattered showers and thunderstorms (a rarity here!). If you're en route, you should expect some choppy/bumpy rides...


777fan



DC-8 61/63/71 DC-9-30/50 MD-80/82/83 DC-10-10/30 MD-11 717 721/2 732/3/4/5/G/8/9 741/2/4 752 762/3 777 A306/319/20/33 AT
User currently offlineThepilot From Canada, joined Jan 2010, 5 posts, RR: 0
Reply 23, posted (8 years 1 day 8 hours ago) and read 3728 times:

KSEA 011856Z 23007KT 10SM FEW020 SCT040 SCT150 BKN200 18/11 A3012 RMK AO2 SLP206 T01830106


From YVR
User currently offlineORDRyan28 From United States of America, joined Jul 2006, 988 posts, RR: 16
Reply 24, posted (8 years 1 day 7 hours ago) and read 3727 times:

98 F

Feels like 107 F



Whoever said winning is not everything never fought cancer.
25 United767 : DCA: Hot as hell! it was well over 100 degrees today plus humidity.
26 FireFly : At 17:03 PDT, PDX, the day is perfect! (But I'm stuck indoors until 8PM) 81.2F, Clear 26% Humidity 5MPH Wind from the N 28.89 Pressure, steady 10 mile
Top Of Page
Forum Index

This topic is archived and can not be replied to any more.

Printer friendly format

Similar topics:More similar topics...
Runway Lengths At Your Home Airport posted Wed Aug 10 2005 01:16:48 by Richardnhsv
What Airlines Have Hangers At Your Home Airport? posted Sun Jun 19 2005 21:22:59 by COEWR777
The Most Frequent Aircraft At Your Home Airport posted Fri Jan 7 2005 17:02:02 by Usairways16bwi
Widebodies At Your Home Airport(s) posted Mon Oct 25 2004 03:40:33 by BA
What Kinds Of Planes Fly Into Your Home Airport? posted Thu Aug 10 2006 03:16:50 by Longhornmaniac
Nice Surprises At Your Local Airport? posted Sat Mar 25 2006 14:16:38 by Lazyshaun
What Airlines Hub Is At Your Closest Airport? posted Sat Jan 14 2006 20:42:23 by JamesJimlb
Places From Your Home Airport Served By 2+ Airline posted Sun Jan 8 2006 03:55:42 by UAalltheway
Your Home Airport: How Many Gates? posted Fri Nov 18 2005 09:01:06 by September11
Free Ticket From Your Home Airport. posted Sat Jun 18 2005 04:30:47 by Crox1